sensor_id;sensor_type;location;lat;lon;timestamp;temperature;humidity
19728;DHT22;10015;52.530;13.390;2023-01-09T05:20:26;5.80;99.90
19728;DHT22;10015;52.530;13.390;2023-01-09T05:31:10;6.00;99.90
19728;DHT22;10015;52.530;13.390;2023-01-09T05:33:36;6.10;99.90
19728;DHT22;10015;52.530;13.390;2023-01-09T05:36:02;6.10;99.90
19728;DHT22;10015;52.530;13.390;2023-01-09T05:38:28;6.10;99.90
19728;DHT22;10015;52.530;13.390;2023-01-09T05:40:54;6.10;99.90
19728;DHT22;10015;52.530;13.390;2023-01-09T05:43:20;6.10;99.90
19728;DHT22;10015;52.530;13.390;2023-01-09T05:45:46;6.00;99.90
19728;DHT22;10015;52.530;13.390;2023-01-09T05:48:13;6.10;99.90
19728;DHT22;10015;52.530;13.390;2023-01-09T05:50:39;6.00;99.90
19728;DHT22;10015;52.530;13.390;2023-01-09T05:53:05;6.10;99.90
19728;DHT22;10015;52.530;13.390;2023-01-09T05:55:32;6.10;99.90
19728;DHT22;10015;52.530;13.390;2023-01-09T05:57:58;6.10;99.90
19728;DHT22;10015;52.530;13.390;2023-01-09T06:00:24;6.10;99.90
19728;DHT22;10015;52.530;13.390;2023-01-09T06:02:51;6.10;99.90
19728;DHT22;10015;52.530;13.390;2023-01-09T06:05:17;6.10;99.90
19728;DHT22;10015;52.530;13.390;2023-01-09T06:07:45;6.10;99.90
19728;DHT22;10015;52.530;13.390;2023-01-09T06:10:15;6.10;99.90
19728;DHT22;10015;52.530;13.390;2023-01-09T06:12:47;6.00;99.90
19728;DHT22;10015;52.530;13.390;2023-01-09T06:15:14;6.00;99.90
19728;DHT22;10015;52.530;13.390;2023-01-09T06:17:41;6.00;99.90
19728;DHT22;10015;52.530;13.390;2023-01-09T06:20:07;6.00;99.90
19728;DHT22;10015;52.530;13.390;2023-01-09T06:22:34;6.10;99.90
19728;DHT22;10015;52.530;13.390;2023-01-09T06:25:06;6.00;99.90
19728;DHT22;10015;52.530;13.390;2023-01-09T06:27:32;6.00;99.90
19728;DHT22;10015;52.530;13.390;2023-01-09T06:29:58;6.00;99.90
19728;DHT22;10015;52.530;13.390;2023-01-09T06:32:24;6.00;99.90
19728;DHT22;10015;52.530;13.390;2023-01-09T06:34:50;6.00;99.90
19728;DHT22;10015;52.530;13.390;2023-01-09T06:37:16;6.10;99.90
19728;DHT22;10015;52.530;13.390;2023-01-09T06:39:42;6.00;99.90
19728;DHT22;10015;52.530;13.390;2023-01-09T06:42:08;6.10;99.90
19728;DHT22;10015;52.530;13.390;2023-01-09T06:44:34;6.10;99.90
19728;DHT22;10015;52.530;13.390;2023-01-09T06:47:02;6.10;99.90
19728;DHT22;10015;52.530;13.390;2023-01-09T06:49:31;6.20;99.90
19728;DHT22;10015;52.530;13.390;2023-01-09T06:51:57;6.20;99.90
19728;DHT22;10015;52.530;13.390;2023-01-09T06:54:23;6.20;99.90
19728;DHT22;10015;52.530;13.390;2023-01-09T06:56:49;6.30;99.90
19728;DHT22;10015;52.530;13.390;2023-01-09T06:59:15;6.30;99.90
19728;DHT22;10015;52.530;13.390;2023-01-09T07:01:41;6.20;99.90
19728;DHT22;10015;52.530;13.390;2023-01-09T07:04:08;6.10;99.90
19728;DHT22;10015;52.530;13.390;2023-01-09T07:06:37;6.10;99.90
19728;DHT22;10015;52.530;13.390;2023-01-09T07:09:03;6.10;99.90
19728;DHT22;10015;52.530;13.390;2023-01-09T07:11:31;6.10;99.90
19728;DHT22;10015;52.530;13.390;2023-01-09T07:13:57;6.10;99.90
19728;DHT22;10015;52.530;13.390;2023-01-09T07:16:23;6.10;99.90
19728;DHT22;10015;52.530;13.390;2023-01-09T07:18:49;6.20;99.90
19728;DHT22;10015;52.530;13.390;2023-01-09T07:21:17;6.10;99.90
19728;DHT22;10015;52.530;13.390;2023-01-09T07:23:43;6.00;99.90
19728;DHT22;10015;52.530;13.390;2023-01-09T07:26:09;6.00;99.90
19728;DHT22;10015;52.530;13.390;2023-01-09T07:28:35;6.10;99.90
19728;DHT22;10015;52.530;13.390;2023-01-09T07:31:01;6.10;99.90
19728;DHT22;10015;52.530;13.390;2023-01-09T07:33:29;6.10;99.90
19728;DHT22;10015;52.530;13.390;2023-01-09T07:35:55;6.00;99.90
19728;DHT22;10015;52.530;13.390;2023-01-09T07:38:21;6.00;99.90
19728;DHT22;10015;52.530;13.390;2023-01-09T07:40:47;6.00;99.90
19728;DHT22;10015;52.530;13.390;2023-01-09T07:43:13;6.10;99.90
19728;DHT22;10015;52.530;13.390;2023-01-09T07:45:39;6.10;99.90
19728;DHT22;10015;52.530;13.390;2023-01-09T07:48:08;6.10;99.90
19728;DHT22;10015;52.530;13.390;2023-01-09T07:50:35;6.10;99.90
19728;DHT22;10015;52.530;13.390;2023-01-09T07:53:01;6.20;99.90
19728;DHT22;10015;52.530;13.390;2023-01-09T07:55:27;6.20;99.90
19728;DHT22;10015;52.530;13.390;2023-01-09T07:57:53;6.20;99.90
19728;DHT22;10015;52.530;13.390;2023-01-09T08:00:19;6.20;99.90
19728;DHT22;10015;52.530;13.390;2023-01-09T08:02:50;6.20;99.90
19728;DHT22;10015;52.530;13.390;2023-01-09T08:05:17;6.20;99.90
19728;DHT22;10015;52.530;13.390;2023-01-09T08:07:43;6.20;99.90
19728;DHT22;10015;52.530;13.390;2023-01-09T08:10:10;6.20;99.90
19728;DHT22;10015;52.530;13.390;2023-01-09T08:12:36;6.30;99.90
19728;DHT22;10015;52.530;13.390;2023-01-09T08:15:03;6.30;99.90
19728;DHT22;10015;52.530;13.390;2023-01-09T08:17:29;6.20;99.90
19728;DHT22;10015;52.530;13.390;2023-01-09T08:19:58;6.20;99.90
19728;DHT22;10015;52.530;13.390;2023-01-09T08:22:24;6.20;99.90
19728;DHT22;10015;52.530;13.390;2023-01-09T08:24:50;6.30;99.90
19728;DHT22;10015;52.530;13.390;2023-01-09T08:27:16;6.30;99.90
19728;DHT22;10015;52.530;13.390;2023-01-09T08:29:44;6.30;99.90
19728;DHT22;10015;52.530;13.390;2023-01-09T08:32:10;6.30;99.90
19728;DHT22;10015;52.530;13.390;2023-01-09T08:34:36;6.40;99.90
19728;DHT22;10015;52.530;13.390;2023-01-09T08:37:02;6.40;99.90
19728;DHT22;10015;52.530;13.390;2023-01-09T08:39:28;6.40;99.90
19728;DHT22;10015;52.530;13.390;2023-01-09T08:41:54;6.40;99.90
19728;DHT22;10015;52.530;13.390;2023-01-09T08:44:38;6.50;99.90
19728;DHT22;10015;52.530;13.390;2023-01-09T08:47:23;6.50;99.90
19728;DHT22;10015;52.530;13.390;2023-01-09T08:49:49;6.50;99.90
19728;DHT22;10015;52.530;13.390;2023-01-09T08:52:15;6.50;99.90
19728;DHT22;10015;52.530;13.390;2023-01-09T08:54:41;6.50;99.90
19728;DHT22;10015;52.530;13.390;2023-01-09T08:57:07;6.50;99.90
19728;DHT22;10015;52.530;13.390;2023-01-09T08:59:33;6.70;99.90
19728;DHT22;10015;52.530;13.390;2023-01-09T09:01:59;6.70;99.90
19728;DHT22;10015;52.530;13.390;2023-01-09T09:04:25;6.60;99.90
19728;DHT22;10015;52.530;13.390;2023-01-09T09:06:51;6.60;99.90
19728;DHT22;10015;52.530;13.390;2023-01-09T09:09:17;6.60;99.90
19728;DHT22;10015;52.530;13.390;2023-01-09T09:11:44;6.70;99.90
19728;DHT22;10015;52.530;13.390;2023-01-09T09:14:10;6.80;99.90
19728;DHT22;10015;52.530;13.390;2023-01-09T09:16:54;6.80;99.90
19728;DHT22;10015;52.530;13.390;2023-01-09T09:19:20;6.80;99.90
19728;DHT22;10015;52.530;13.390;2023-01-09T09:21:46;6.70;99.90
19728;DHT22;10015;52.530;13.390;2023-01-09T09:24:12;6.70;99.90
19728;DHT22;10015;52.530;13.390;2023-01-09T09:26:38;6.70;99.90
19728;DHT22;10015;52.530;13.390;2023-01-09T09:29:04;6.80;99.90
19728;DHT22;10015;52.530;13.390;2023-01-09T09:31:33;6.80;99.90
19728;DHT22;10015;52.530;13.390;2023-01-09T09:34:00;6.80;99.90
19728;DHT22;10015;52.530;13.390;2023-01-09T09:36:27;7.00;99.90
19728;DHT22;10015;52.530;13.390;2023-01-09T09:38:53;7.00;99.90
19728;DHT22;10015;52.530;13.390;2023-01-09T09:55:48;7.20;99.90
19728;DHT22;10015;52.530;13.390;2023-01-09T09:58:28;7.30;99.90
19728;DHT22;10015;52.530;13.390;2023-01-09T10:00:57;7.50;99.90
19728;DHT22;10015;52.530;13.390;2023-01-09T10:03:37;7.50;99.90
19728;DHT22;10015;52.530;13.390;2023-01-09T10:06:28;7.60;99.90
19728;DHT22;10015;52.530;13.390;2023-01-09T10:09:02;7.70;99.90
19728;DHT22;10015;52.530;13.390;2023-01-09T10:11:43;7.80;99.90
19728;DHT22;10015;52.530;13.390;2023-01-09T10:14:11;7.90;99.90
19728;DHT22;10015;52.530;13.390;2023-01-09T10:38:45;8.20;99.90
19728;DHT22;10015;52.530;13.390;2023-01-09T10:41:26;8.30;99.90
19728;DHT22;10015;52.530;13.390;2023-01-09T10:43:58;8.40;99.90
19728;DHT22;10015;52.530;13.390;2023-01-09T10:46:52;8.40;99.90
19728;DHT22;10015;52.530;13.390;2023-01-09T10:49:17;8.50;99.90
19728;DHT22;10015;52.530;13.390;2023-01-09T10:51:51;8.60;99.90
19728;DHT22;10015;52.530;13.390;2023-01-09T10:54:21;8.60;99.90
19728;DHT22;10015;52.530;13.390;2023-01-09T10:57:00;8.60;99.90
19728;DHT22;10015;52.530;13.390;2023-01-09T10:59:29;8.70;99.90
19728;DHT22;10015;52.530;13.390;2023-01-09T11:01:56;8.70;99.90
19728;DHT22;10015;52.530;13.390;2023-01-09T11:04:31;8.70;99.90
19728;DHT22;10015;52.530;13.390;2023-01-09T11:07:04;8.60;99.90
19728;DHT22;10015;52.530;13.390;2023-01-09T11:09:54;8.60;99.90
19728;DHT22;10015;52.530;13.390;2023-01-09T11:12:27;8.70;99.90
19728;DHT22;10015;52.530;13.390;2023-01-09T11:14:53;8.80;99.90
19728;DHT22;10015;52.530;13.390;2023-01-09T11:17:21;8.70;99.90
19728;DHT22;10015;52.530;13.390;2023-01-09T11:20:04;8.80;99.90
19728;DHT22;10015;52.530;13.390;2023-01-09T11:22:48;8.80;99.90
19728;DHT22;10015;52.530;13.390;2023-01-09T11:25:17;8.70;99.90
19728;DHT22;10015;52.530;13.390;2023-01-09T11:28:01;8.80;99.90
19728;DHT22;10015;52.530;13.390;2023-01-09T11:30:35;8.80;99.90
19728;DHT22;10015;52.530;13.390;2023-01-09T11:33:27;8.80;99.90
19728;DHT22;10015;52.530;13.390;2023-01-09T11:36:00;8.80;99.90
19728;DHT22;10015;52.530;13.390;2023-01-09T11:38:29;8.70;99.90
19728;DHT22;10015;52.530;13.390;2023-01-09T11:40:58;8.70;99.90
19728;DHT22;10015;52.530;13.390;2023-01-09T11:43:30;8.70;99.90
19728;DHT22;10015;52.530;13.390;2023-01-09T11:46:02;8.70;99.90
19728;DHT22;10015;52.530;13.390;2023-01-09T11:48:56;8.70;99.90
19728;DHT22;10015;52.530;13.390;2023-01-09T11:51:23;8.70;99.90
19728;DHT22;10015;52.530;13.390;2023-01-09T11:56:23;8.80;99.90
19728;DHT22;10015;52.530;13.390;2023-01-09T11:58:49;9.00;99.90
19728;DHT22;10015;52.530;13.390;2023-01-09T12:17:57;9.30;99.90
19728;DHT22;10015;52.530;13.390;2023-01-09T12:21:10;9.30;99.90
19728;DHT22;10015;52.530;13.390;2023-01-09T12:29:29;9.70;99.90
19728;DHT22;10015;52.530;13.390;2023-01-09T12:37:48;9.50;99.90
19728;DHT22;10015;52.530;13.390;2023-01-09T12:40:43;9.40;99.90
19728;DHT22;10015;52.530;13.390;2023-01-09T12:46:20;9.70;99.90
19728;DHT22;10015;52.530;13.390;2023-01-09T12:49:18;9.70;99.90
19728;DHT22;10015;52.530;13.390;2023-01-09T12:52:08;9.80;99.90
19728;DHT22;10015;52.530;13.390;2023-01-09T12:54:58;9.70;99.90
19728;DHT22;10015;52.530;13.390;2023-01-09T12:57:34;9.60;99.90
19728;DHT22;10015;52.530;13.390;2023-01-09T13:00:10;9.40;99.90
19728;DHT22;10015;52.530;13.390;2023-01-09T13:05:49;9.30;99.90
19728;DHT22;10015;52.530;13.390;2023-01-09T13:10:52;9.40;99.90
19728;DHT22;10015;52.530;13.390;2023-01-09T13:13:33;9.50;99.90
19728;DHT22;10015;52.530;13.390;2023-01-09T13:16:05;9.40;99.90
19728;DHT22;10015;52.530;13.390;2023-01-09T13:18:39;9.20;99.90
19728;DHT22;10015;52.530;13.390;2023-01-09T13:21:07;9.30;99.90
19728;DHT22;10015;52.530;13.390;2023-01-09T13:26:30;9.40;99.90
19728;DHT22;10015;52.530;13.390;2023-01-09T13:29:01;9.30;99.90
19728;DHT22;10015;52.530;13.390;2023-01-09T13:31:45;9.40;99.90
19728;DHT22;10015;52.530;13.390;2023-01-09T13:34:19;9.40;99.90
19728;DHT22;10015;52.530;13.390;2023-01-09T13:36:49;9.30;99.90
19728;DHT22;10015;52.530;13.390;2023-01-09T13:39:27;9.30;99.90
19728;DHT22;10015;52.530;13.390;2023-01-09T13:42:03;9.20;99.90
19728;DHT22;10015;52.530;13.390;2023-01-09T13:44:52;9.20;99.90
19728;DHT22;10015;52.530;13.390;2023-01-09T13:47:25;9.20;99.90
19728;DHT22;10015;52.530;13.390;2023-01-09T13:50:21;9.20;99.90
19728;DHT22;10015;52.530;13.390;2023-01-09T13:52:46;9.10;99.90
19728;DHT22;10015;52.530;13.390;2023-01-09T13:58:29;9.20;99.90
19728;DHT22;10015;52.530;13.390;2023-01-09T14:06:16;9.30;99.90
19728;DHT22;10015;52.530;13.390;2023-01-09T14:08:22;9.20;99.90
19728;DHT22;10015;52.530;13.390;2023-01-09T14:10:55;9.30;99.90
19728;DHT22;10015;52.530;13.390;2023-01-09T14:13:25;9.20;99.90
19728;DHT22;10015;52.530;13.390;2023-01-09T14:16:04;9.30;99.90
19728;DHT22;10015;52.530;13.390;2023-01-09T14:18:35;9.20;99.90
19728;DHT22;10015;52.530;13.390;2023-01-09T14:21:10;9.10;99.90
19728;DHT22;10015;52.530;13.390;2023-01-09T14:26:24;9.20;99.90
19728;DHT22;10015;52.530;13.390;2023-01-09T14:28:51;9.10;99.90
19728;DHT22;10015;52.530;13.390;2023-01-09T14:31:43;9.20;99.90
19728;DHT22;10015;52.530;13.390;2023-01-09T14:34:34;9.20;99.90
19728;DHT22;10015;52.530;13.390;2023-01-09T14:37:02;9.30;99.90
19728;DHT22;10015;52.530;13.390;2023-01-09T14:39:31;9.30;99.90
19728;DHT22;10015;52.530;13.390;2023-01-09T14:42:00;9.30;99.90
19728;DHT22;10015;52.530;13.390;2023-01-09T14:44:49;9.40;99.90
19728;DHT22;10015;52.530;13.390;2023-01-09T14:47:45;9.40;99.90
19728;DHT22;10015;52.530;13.390;2023-01-09T14:55:51;9.30;99.90
19728;DHT22;10015;52.530;13.390;2023-01-09T14:58:33;9.30;99.90
19728;DHT22;10015;52.530;13.390;2023-01-09T15:01:15;9.40;99.90
19728;DHT22;10015;52.530;13.390;2023-01-09T15:03:50;9.40;99.90
19728;DHT22;10015;52.530;13.390;2023-01-09T15:06:20;9.40;99.90
19728;DHT22;10015;52.530;13.390;2023-01-09T15:09:06;9.40;99.90
19728;DHT22;10015;52.530;13.390;2023-01-09T15:11:36;9.40;99.90
19728;DHT22;10015;52.530;13.390;2023-01-09T15:14:04;9.40;99.90
19728;DHT22;10015;52.530;13.390;2023-01-09T15:16:32;9.20;99.90
19728;DHT22;10015;52.530;13.390;2023-01-09T15:19:01;9.20;99.90
19728;DHT22;10015;52.530;13.390;2023-01-09T15:21:29;9.20;99.90
19728;DHT22;10015;52.530;13.390;2023-01-09T15:24:23;9.30;99.90
19728;DHT22;10015;52.530;13.390;2023-01-09T15:26:56;9.30;99.90
19728;DHT22;10015;52.530;13.390;2023-01-09T15:29:23;9.30;99.90
19728;DHT22;10015;52.530;13.390;2023-01-09T15:32:25;9.20;99.90
19728;DHT22;10015;52.530;13.390;2023-01-09T15:34:54;9.20;99.90
19728;DHT22;10015;52.530;13.390;2023-01-09T15:37:35;9.10;99.90
19728;DHT22;10015;52.530;13.390;2023-01-09T15:40:04;9.10;99.90
19728;DHT22;10015;52.530;13.390;2023-01-09T15:42:37;9.10;99.90
19728;DHT22;10015;52.530;13.390;2023-01-09T15:45:42;9.20;99.90
19728;DHT22;10015;52.530;13.390;2023-01-09T15:50:48;9.10;99.90
19728;DHT22;10015;52.530;13.390;2023-01-09T15:53:17;9.00;99.90
19728;DHT22;10015;52.530;13.390;2023-01-09T15:55:45;9.00;99.90
19728;DHT22;10015;52.530;13.390;2023-01-09T15:58:28;9.10;99.90
19728;DHT22;10015;52.530;13.390;2023-01-09T16:00:59;9.10;99.90
19728;DHT22;10015;52.530;13.390;2023-01-09T16:03:26;8.90;99.90
19728;DHT22;10015;52.530;13.390;2023-01-09T16:06:06;8.70;99.90
19728;DHT22;10015;52.530;13.390;2023-01-09T16:08:48;8.60;99.90
19728;DHT22;10015;52.530;13.390;2023-01-09T16:11:32;8.60;99.90
19728;DHT22;10015;52.530;13.390;2023-01-09T16:14:16;8.60;99.90
19728;DHT22;10015;52.530;13.390;2023-01-09T16:16:45;8.70;99.90
19728;DHT22;10015;52.530;13.390;2023-01-09T16:22:19;8.70;99.90
19728;DHT22;10015;52.530;13.390;2023-01-09T16:24:46;8.70;99.90
19728;DHT22;10015;52.530;13.390;2023-01-09T16:27:29;8.80;99.90
19728;DHT22;10015;52.530;13.390;2023-01-09T16:30:04;8.90;99.90
19728;DHT22;10015;52.530;13.390;2023-01-09T16:32:36;8.90;99.90
19728;DHT22;10015;52.530;13.390;2023-01-09T16:35:18;8.80;99.90
19728;DHT22;10015;52.530;13.390;2023-01-09T16:37:45;8.80;99.90
19728;DHT22;10015;52.530;13.390;2023-01-09T16:42:50;8.80;99.90
19728;DHT22;10015;52.530;13.390;2023-01-09T16:45:40;9.00;99.90
19728;DHT22;10015;52.530;13.390;2023-01-09T16:48:21;9.00;99.90
19728;DHT22;10015;52.530;13.390;2023-01-09T16:50:47;8.90;99.90
19728;DHT22;10015;52.530;13.390;2023-01-09T16:53:21;8.80;99.90
19728;DHT22;10015;52.530;13.390;2023-01-09T16:55:49;8.90;99.90
19728;DHT22;10015;52.530;13.390;2023-01-09T16:58:31;8.90;99.90
19728;DHT22;10015;52.530;13.390;2023-01-09T17:00:57;8.80;99.90
19728;DHT22;10015;52.530;13.390;2023-01-09T17:03:24;8.70;99.90
19728;DHT22;10015;52.530;13.390;2023-01-09T17:05:53;8.70;99.90
19728;DHT22;10015;52.530;13.390;2023-01-09T17:08:24;8.70;99.90
19728;DHT22;10015;52.530;13.390;2023-01-09T17:10:51;8.70;99.90
19728;DHT22;10015;52.530;13.390;2023-01-09T17:13:18;8.70;99.90
19728;DHT22;10015;52.530;13.390;2023-01-09T17:15:45;8.60;99.90
19728;DHT22;10015;52.530;13.390;2023-01-09T17:18:16;8.60;99.90
19728;DHT22;10015;52.530;13.390;2023-01-09T17:20:46;8.70;99.90
19728;DHT22;10015;52.530;13.390;2023-01-09T17:23:12;8.70;99.90
19728;DHT22;10015;52.530;13.390;2023-01-09T17:25:39;8.60;99.90
19728;DHT22;10015;52.530;13.390;2023-01-09T17:28:24;8.50;99.90
19728;DHT22;10015;52.530;13.390;2023-01-09T17:31:01;8.60;99.90
19728;DHT22;10015;52.530;13.390;2023-01-09T17:33:28;8.70;99.90
19728;DHT22;10015;52.530;13.390;2023-01-09T17:35:55;8.70;99.90
19728;DHT22;10015;52.530;13.390;2023-01-09T17:38:47;8.70;99.90
19728;DHT22;10015;52.530;13.390;2023-01-09T17:41:23;8.60;99.90
19728;DHT22;10015;52.530;13.390;2023-01-09T17:43:50;8.60;99.90
19728;DHT22;10015;52.530;13.390;2023-01-09T17:46:34;8.60;99.90
19728;DHT22;10015;52.530;13.390;2023-01-09T17:49:02;8.60;99.90
19728;DHT22;10015;52.530;13.390;2023-01-09T17:51:29;8.60;99.90
19728;DHT22;10015;52.530;13.390;2023-01-09T17:53:56;8.70;99.90
19728;DHT22;10015;52.530;13.390;2023-01-09T17:56:33;8.60;99.90
19728;DHT22;10015;52.530;13.390;2023-01-09T17:59:00;8.50;99.90
19728;DHT22;10015;52.530;13.390;2023-01-09T18:01:26;8.60;99.90
19728;DHT22;10015;52.530;13.390;2023-01-09T18:03:54;8.50;99.90
19728;DHT22;10015;52.530;13.390;2023-01-09T18:06:21;8.40;99.90
19728;DHT22;10015;52.530;13.390;2023-01-09T18:08:47;8.50;99.90
19728;DHT22;10015;52.530;13.390;2023-01-09T18:11:16;8.60;99.90
19728;DHT22;10015;52.530;13.390;2023-01-09T18:13:43;8.60;99.90
19728;DHT22;10015;52.530;13.390;2023-01-09T18:16:12;8.70;99.90
19728;DHT22;10015;52.530;13.390;2023-01-09T18:18:39;8.70;99.90
19728;DHT22;10015;52.530;13.390;2023-01-09T18:21:06;8.90;99.90
19728;DHT22;10015;52.530;13.390;2023-01-09T18:23:33;8.80;99.90
19728;DHT22;10015;52.530;13.390;2023-01-09T18:26:07;8.90;99.90
19728;DHT22;10015;52.530;13.390;2023-01-09T18:28:37;8.70;99.90
19728;DHT22;10015;52.530;13.390;2023-01-09T18:31:04;8.70;99.90
19728;DHT22;10015;52.530;13.390;2023-01-09T18:33:31;8.60;99.90
19728;DHT22;10015;52.530;13.390;2023-01-09T18:36:20;8.70;99.90
19728;DHT22;10015;52.530;13.390;2023-01-09T18:38:51;8.70;99.90
19728;DHT22;10015;52.530;13.390;2023-01-09T18:41:19;8.80;99.90
19728;DHT22;10015;52.530;13.390;2023-01-09T18:43:52;8.60;99.90
19728;DHT22;10015;52.530;13.390;2023-01-09T18:46:19;8.50;99.90
19728;DHT22;10015;52.530;13.390;2023-01-09T18:49:00;8.50;99.90
19728;DHT22;10015;52.530;13.390;2023-01-09T18:51:27;8.40;99.90
19728;DHT22;10015;52.530;13.390;2023-01-09T18:53:54;8.30;99.90
19728;DHT22;10015;52.530;13.390;2023-01-09T18:56:21;8.30;99.90
19728;DHT22;10015;52.530;13.390;2023-01-09T18:58:47;8.30;99.90
19728;DHT22;10015;52.530;13.390;2023-01-09T19:01:14;8.10;99.90
19728;DHT22;10015;52.530;13.390;2023-01-09T19:03:41;8.10;99.90
19728;DHT22;10015;52.530;13.390;2023-01-09T19:06:07;8.10;99.90
19728;DHT22;10015;52.530;13.390;2023-01-09T19:08:34;8.20;99.90
19728;DHT22;10015;52.530;13.390;2023-01-09T19:11:01;8.20;99.90
19728;DHT22;10015;52.530;13.390;2023-01-09T19:13:32;8.30;99.90
19728;DHT22;10015;52.530;13.390;2023-01-09T19:15:59;8.30;99.90
19728;DHT22;10015;52.530;13.390;2023-01-09T19:18:26;8.20;99.90
19728;DHT22;10015;52.530;13.390;2023-01-09T19:20:54;8.30;99.90
19728;DHT22;10015;52.530;13.390;2023-01-09T19:23:21;8.20;99.90
19728;DHT22;10015;52.530;13.390;2023-01-09T19:25:50;8.20;99.90
19728;DHT22;10015;52.530;13.390;2023-01-09T19:28:17;8.30;99.90
19728;DHT22;10015;52.530;13.390;2023-01-09T19:30:43;8.30;99.90
19728;DHT22;10015;52.530;13.390;2023-01-09T19:33:10;8.30;99.90
19728;DHT22;10015;52.530;13.390;2023-01-09T19:35:37;8.30;99.90
19728;DHT22;10015;52.530;13.390;2023-01-09T19:38:04;8.30;99.90
19728;DHT22;10015;52.530;13.390;2023-01-09T19:40:31;8.30;99.90
19728;DHT22;10015;52.530;13.390;2023-01-09T19:42:57;8.20;99.90
19728;DHT22;10015;52.530;13.390;2023-01-09T19:45:24;8.30;99.90
19728;DHT22;10015;52.530;13.390;2023-01-09T19:47:50;8.40;99.90
19728;DHT22;10015;52.530;13.390;2023-01-09T19:50:17;8.30;99.90
19728;DHT22;10015;52.530;13.390;2023-01-09T19:52:43;8.20;99.90
19728;DHT22;10015;52.530;13.390;2023-01-09T19:55:11;8.30;99.90
19728;DHT22;10015;52.530;13.390;2023-01-09T19:57:43;8.40;99.90
19728;DHT22;10015;52.530;13.390;2023-01-09T20:00:10;8.50;99.90
19728;DHT22;10015;52.530;13.390;2023-01-09T20:02:40;8.40;99.90
19728;DHT22;10015;52.530;13.390;2023-01-09T20:05:07;8.40;99.90
19728;DHT22;10015;52.530;13.390;2023-01-09T20:07:33;8.40;99.90
19728;DHT22;10015;52.530;13.390;2023-01-09T20:10:00;8.50;99.90
19728;DHT22;10015;52.530;13.390;2023-01-09T20:12:26;8.60;99.90
19728;DHT22;10015;52.530;13.390;2023-01-09T20:14:52;8.50;99.90
19728;DHT22;10015;52.530;13.390;2023-01-09T20:17:19;8.50;99.90
19728;DHT22;10015;52.530;13.390;2023-01-09T20:20:14;8.60;99.90
19728;DHT22;10015;52.530;13.390;2023-01-09T20:22:43;8.70;99.90
19728;DHT22;10015;52.530;13.390;2023-01-09T20:25:09;8.60;99.90
19728;DHT22;10015;52.530;13.390;2023-01-09T20:27:56;8.70;99.90
19728;DHT22;10015;52.530;13.390;2023-01-09T20:30:23;8.60;99.90
19728;DHT22;10015;52.530;13.390;2023-01-09T20:32:50;8.70;99.90
19728;DHT22;10015;52.530;13.390;2023-01-09T20:47:10;8.50;99.90
19728;DHT22;10015;52.530;13.390;2023-01-09T21:24:18;8.80;99.90
19728;DHT22;10015;52.530;13.390;2023-01-09T21:28:27;8.90;99.90
19728;DHT22;10015;52.530;13.390;2023-01-09T21:35:09;8.90;99.90
19728;DHT22;10015;52.530;13.390;2023-01-09T21:56:15;8.80;99.90
19728;DHT22;10015;52.530;13.390;2023-01-09T21:58:43;8.80;99.90
19728;DHT22;10015;52.530;13.390;2023-01-09T22:01:10;8.60;99.90
19728;DHT22;10015;52.530;13.390;2023-01-09T22:03:55;8.50;99.90
19728;DHT22;10015;52.530;13.390;2023-01-09T22:10:12;8.70;99.90
19728;DHT22;10015;52.530;13.390;2023-01-09T22:24:56;8.60;99.90
19728;DHT22;10015;52.530;13.390;2023-01-09T22:27:24;8.50;99.90
19728;DHT22;10015;52.530;13.390;2023-01-09T22:29:50;8.60;99.90
19728;DHT22;10015;52.530;13.390;2023-01-09T22:32:16;8.70;99.90
19728;DHT22;10015;52.530;13.390;2023-01-09T22:34:43;8.70;99.90
19728;DHT22;10015;52.530;13.390;2023-01-09T22:37:10;8.70;99.90
19728;DHT22;10015;52.530;13.390;2023-01-09T22:39:36;8.70;99.90
19728;DHT22;10015;52.530;13.390;2023-01-09T22:42:02;8.80;99.90
19728;DHT22;10015;52.530;13.390;2023-01-09T22:44:28;8.60;99.90
19728;DHT22;10015;52.530;13.390;2023-01-09T22:46:54;8.70;99.90
19728;DHT22;10015;52.530;13.390;2023-01-09T22:49:22;8.70;99.90
19728;DHT22;10015;52.530;13.390;2023-01-09T22:51:48;8.70;99.90
19728;DHT22;10015;52.530;13.390;2023-01-09T22:54:14;8.80;99.90
19728;DHT22;10015;52.530;13.390;2023-01-09T22:56:40;8.80;99.90
19728;DHT22;10015;52.530;13.390;2023-01-09T22:59:06;8.80;99.90
19728;DHT22;10015;52.530;13.390;2023-01-09T23:01:32;8.80;99.90
19728;DHT22;10015;52.530;13.390;2023-01-09T23:03:58;8.90;99.90
19728;DHT22;10015;52.530;13.390;2023-01-09T23:06:28;8.90;99.90
19728;DHT22;10015;52.530;13.390;2023-01-09T23:08:54;8.90;99.90
19728;DHT22;10015;52.530;13.390;2023-01-09T23:11:27;8.90;99.90
19728;DHT22;10015;52.530;13.390;2023-01-09T23:14:12;8.90;99.90
19728;DHT22;10015;52.530;13.390;2023-01-09T23:16:38;9.00;99.90
19728;DHT22;10015;52.530;13.390;2023-01-09T23:19:04;8.80;99.90
19728;DHT22;10015;52.530;13.390;2023-01-09T23:21:40;8.70;99.90
19728;DHT22;10015;52.530;13.390;2023-01-09T23:24:06;8.70;99.90
19728;DHT22;10015;52.530;13.390;2023-01-09T23:26:33;8.80;99.90
19728;DHT22;10015;52.530;13.390;2023-01-09T23:28:59;8.80;99.90
19728;DHT22;10015;52.530;13.390;2023-01-09T23:31:26;8.80;99.90
19728;DHT22;10015;52.530;13.390;2023-01-09T23:33:52;8.70;99.90
19728;DHT22;10015;52.530;13.390;2023-01-09T23:36:18;8.70;99.90
19728;DHT22;10015;52.530;13.390;2023-01-09T23:38:47;8.70;99.90
19728;DHT22;10015;52.530;13.390;2023-01-09T23:41:14;8.70;99.90
19728;DHT22;10015;52.530;13.390;2023-01-09T23:43:41;8.60;99.90
19728;DHT22;10015;52.530;13.390;2023-01-09T23:46:07;8.70;99.90
19728;DHT22;10015;52.530;13.390;2023-01-09T23:48:34;8.80;99.90
19728;DHT22;10015;52.530;13.390;2023-01-09T23:51:00;8.80;99.90
19728;DHT22;10015;52.530;13.390;2023-01-09T23:53:26;8.80;99.90
19728;DHT22;10015;52.530;13.390;2023-01-09T23:55:54;8.80;99.90
19728;DHT22;10015;52.530;13.390;2023-01-09T23:58:20;8.70;99.90
